createdAt,value
2018-04-17T00:02:50.314Z,16.74
2018-04-17T00:08:41.025Z,15.1
2018-04-17T00:14:31.740Z,20.77
2018-04-17T00:20:22.403Z,16.87
2018-04-17T00:26:13.196Z,15.19
2018-04-17T00:32:03.837Z,19.33
2018-04-17T00:37:54.602Z,16.7
2018-04-17T00:43:45.279Z,20.92
2018-04-17T00:49:36.020Z,16.37
2018-04-17T00:55:26.721Z,15.18
2018-04-17T01:01:17.474Z,18.14
2018-04-17T01:07:08.114Z,22.2
2018-04-17T01:12:58.880Z,17.57
2018-04-17T01:18:49.568Z,20.77
2018-04-17T01:24:40.319Z,20.37
2018-04-17T01:30:30.986Z,18.74
2018-04-17T01:36:21.658Z,18.55
2018-04-17T01:42:12.394Z,21.45
2018-04-17T01:48:03.135Z,18.36
2018-04-17T01:53:53.832Z,13.27
2018-04-17T01:59:44.540Z,26.41
2018-04-17T02:05:35.225Z,22.27
2018-04-17T02:11:25.991Z,17.95
2018-04-17T02:17:16.667Z,17.66
2018-04-17T02:23:07.357Z,21.45
2018-04-17T02:28:58.094Z,14.2
2018-04-17T02:34:48.850Z,14.69
2018-04-17T02:40:39.510Z,19.41
2018-04-17T02:46:30.231Z,14.73
2018-04-17T02:52:20.920Z,17.47
2018-04-17T02:58:12.212Z,23.12
2018-04-17T03:04:02.324Z,15.13
2018-04-17T03:09:53.024Z,14.9
2018-04-17T03:15:43.814Z,16.76
2018-04-17T03:21:34.474Z,15.69
2018-04-17T03:27:25.205Z,14.91
2018-04-17T03:33:15.878Z,20.91
2018-04-17T03:39:06.614Z,20.73
2018-04-17T03:44:57.325Z,14.2
2018-04-17T03:50:47.962Z,12.09
2018-04-17T03:56:38.764Z,15.72
2018-04-17T04:02:29.390Z,18.31
2018-04-17T04:08:20.186Z,16.42
2018-04-17T04:14:12.092Z,19.97
2018-04-17T04:20:01.543Z,17.02
2018-04-17T04:25:52.220Z,18.77
2018-04-17T04:31:42.949Z,20.86
2018-04-17T04:37:33.675Z,14.69
2018-04-17T04:43:24.353Z,19.68
2018-04-17T04:49:15.052Z,16.58
2018-04-17T04:55:05.757Z,19.9
2018-04-17T05:00:56.485Z,16.09
2018-04-17T05:06:47.186Z,15.59
2018-04-17T05:12:37.903Z,19.07
2018-04-17T05:18:28.673Z,23.9
2018-04-17T05:24:19.310Z,21.34
2018-04-17T05:30:12.094Z,26.04
2018-04-17T05:36:00.763Z,14.23
2018-04-17T05:41:51.451Z,32.53
2018-04-17T05:47:42.173Z,25.03
2018-04-17T05:53:32.865Z,18.17
2018-04-17T05:59:23.557Z,16.19
2018-04-17T06:05:14.270Z,23.06
2018-04-17T06:11:04.980Z,20.89
2018-04-17T06:16:55.707Z,21.96
2018-04-17T06:22:46.409Z,20.56
2018-04-17T06:28:37.164Z,27.3
2018-04-17T06:34:27.825Z,24.87
2018-04-17T06:40:18.533Z,26.23
2018-04-17T06:46:09.254Z,24.31
2018-04-17T06:52:00.011Z,26.26
2018-04-17T06:57:50.682Z,30.24
2018-04-17T07:03:41.393Z,28.81
2018-04-17T07:09:32.100Z,22.84
2018-04-17T07:15:22.867Z,24
2018-04-17T07:21:13.546Z,29.93
2018-04-17T07:27:04.265Z,30.6
2018-04-17T07:32:54.956Z,37
2018-04-17T07:38:45.664Z,26.98
2018-04-17T07:44:36.423Z,25.95
2018-04-17T07:50:27.103Z,33.81
2018-04-17T07:56:17.797Z,34.02
2018-04-17T08:02:08.542Z,42.97
2018-04-17T08:07:59.220Z,40.31
2018-04-17T08:13:49.943Z,35.83
2018-04-17T08:19:40.679Z,38.66
2018-04-17T08:25:31.373Z,36.08
2018-04-17T08:31:22.088Z,38.67
2018-04-17T08:37:12.833Z,38.08
2018-04-17T08:43:03.555Z,32.65
2018-04-17T08:48:54.294Z,30.01
2018-04-17T08:54:44.973Z,30.94
2018-04-17T09:00:35.701Z,28.75
2018-04-17T09:06:26.430Z,49.12
2018-04-17T09:12:17.212Z,41.03
2018-04-17T09:18:07.876Z,50.79
2018-04-17T09:23:58.618Z,38.22
2018-04-17T09:29:49.303Z,45.78
2018-04-17T09:35:39.986Z,43.87
2018-04-17T09:41:30.733Z,37.59
2018-04-17T09:47:21.460Z,33.75
2018-04-17T09:53:12.154Z,40.21
2018-04-17T09:59:02.897Z,39.45
2018-04-17T10:04:53.641Z,35.34
2018-04-17T10:10:44.366Z,28.86
2018-04-17T10:16:35.139Z,28.71
2018-04-17T10:22:25.792Z,38.14
2018-04-17T10:28:16.504Z,28.49
2018-04-17T10:34:07.239Z,27.67
2018-04-17T10:39:57.977Z,30.02
2018-04-17T10:45:48.720Z,31.91
2018-04-17T10:51:39.422Z,17.88
2018-04-17T10:57:30.216Z,17.14
2018-04-17T11:03:21.068Z,19.03
2018-04-17T11:09:11.661Z,22
2018-04-17T11:15:02.365Z,24.05
2018-04-17T11:20:53.108Z,16.18
2018-04-17T11:26:43.849Z,18.84
2018-04-17T11:32:34.620Z,18.99
2018-04-17T11:38:25.341Z,13.31
2018-04-17T11:44:16.072Z,16.79
2018-04-17T11:50:07.252Z,13.59
2018-04-17T11:55:57.528Z,14.72
2018-04-17T12:01:48.273Z,11.6
2018-04-17T12:07:38.978Z,10.7
2018-04-17T12:13:29.736Z,10.19
2018-04-17T12:19:20.504Z,10.46
2018-04-17T12:25:11.921Z,10.71
2018-04-17T12:31:01.984Z,14.88
2018-04-17T12:36:52.714Z,18.64
2018-04-17T12:42:43.464Z,15.31
2018-04-17T12:48:34.239Z,9.07
2018-04-17T12:54:24.944Z,9.96
2018-04-17T13:00:15.707Z,14.4
2018-04-17T13:06:06.443Z,14.56
2018-04-17T13:11:57.177Z,13.7
2018-04-17T13:17:47.997Z,10.57
2018-04-17T13:23:38.695Z,6.13
2018-04-17T13:29:29.443Z,13.33
2018-04-17T13:35:20.440Z,10.74
2018-04-17T13:41:11.005Z,8.75
2018-04-17T13:47:01.819Z,9.86
2018-04-17T13:52:52.540Z,5.66
2018-04-17T13:58:43.274Z,14.46
2018-04-17T14:04:34.051Z,7.49
2018-04-17T14:10:24.791Z,13.25
2018-04-17T14:16:15.594Z,12.88
2018-04-17T14:22:06.403Z,10.98
2018-04-17T14:27:57.119Z,7.7
2018-04-17T14:33:47.950Z,9.05
2018-04-17T14:39:38.688Z,9.12
2018-04-17T14:45:29.372Z,6.7
2018-04-17T14:51:20.168Z,6.2
2018-04-17T14:57:10.930Z,6.41
2018-04-17T15:03:01.737Z,8.84
2018-04-17T15:08:52.497Z,6.74
2018-04-17T15:14:43.264Z,11.16
2018-04-17T15:20:34.057Z,5.32
2018-04-17T15:26:24.828Z,5.29
2018-04-17T15:32:15.569Z,8.76
2018-04-17T15:38:06.355Z,10.25
2018-04-17T15:43:57.086Z,10.48
2018-04-17T15:49:47.844Z,10
2018-04-17T15:55:38.628Z,11.08
2018-04-17T16:01:29.406Z,7.94
2018-04-17T16:07:20.176Z,7.97
2018-04-17T16:13:10.996Z,5.62
2018-04-17T16:19:01.880Z,9.23
2018-04-17T16:24:52.415Z,9.73
2018-04-17T16:30:43.153Z,6.53
2018-04-17T16:36:33.960Z,10.3
2018-04-17T16:42:24.678Z,11.07
2018-04-17T16:48:15.425Z,11.13
2018-04-17T16:54:06.203Z,15.07
2018-04-17T16:59:56.977Z,17.19
2018-04-17T17:05:47.692Z,15.48
2018-04-17T17:11:38.417Z,11.53
2018-04-17T17:17:29.190Z,13.84
2018-04-17T17:23:19.916Z,17.57
2018-04-17T17:29:10.715Z,17.56
2018-04-17T17:35:01.443Z,17.03
2018-04-17T17:40:52.163Z,14.61
2018-04-17T17:46:42.893Z,17.05
2018-04-17T17:52:33.620Z,17.89
2018-04-17T17:58:24.389Z,13.31
2018-04-17T18:04:15.088Z,20.57
2018-04-17T18:10:05.908Z,13.75
2018-04-17T18:15:56.642Z,15.36
2018-04-17T18:21:47.318Z,22.38
2018-04-17T18:27:38.110Z,13.56
2018-04-17T18:33:28.825Z,13.27
2018-04-17T18:39:19.544Z,18.74
2018-04-17T18:45:10.245Z,12.26
2018-04-17T18:51:01.042Z,17.65
2018-04-17T18:56:51.721Z,14.63
2018-04-17T19:02:42.481Z,20.5
2018-04-17T19:08:33.204Z,17.79
2018-04-17T19:14:25.741Z,21.29
2018-04-17T19:20:14.671Z,16.38
2018-04-17T19:26:05.409Z,15.41
2018-04-17T19:31:56.197Z,12.27
2018-04-17T19:37:46.876Z,17.38
2018-04-17T19:43:37.653Z,10.71
2018-04-17T19:49:29.144Z,11.82
2018-04-17T19:55:19.054Z,12.49
2018-04-17T20:01:10.451Z,10.54
2018-04-17T20:07:02.581Z,11.81
2018-04-17T20:12:51.306Z,9.77
2018-04-17T20:18:42.050Z,15.85
2018-04-17T20:24:32.711Z,13.4
2018-04-17T20:30:23.434Z,13.21
2018-04-17T20:36:14.199Z,13.11
2018-04-17T20:42:04.915Z,16.38
2018-04-17T20:47:55.636Z,12.37
2018-04-17T20:53:46.385Z,17.38
2018-04-17T20:59:37.121Z,11.58
2018-04-17T21:05:27.800Z,14
2018-04-17T21:11:18.517Z,8.29
2018-04-17T21:17:09.246Z,10.79
2018-04-17T21:23:00.007Z,12.91
2018-04-17T21:28:50.696Z,12.61
2018-04-17T21:34:41.449Z,9.66
2018-04-17T21:40:32.135Z,17.46
2018-04-17T21:46:22.879Z,10.81
2018-04-17T21:52:15.072Z,9.25
2018-04-17T21:58:04.313Z,7.34
2018-04-17T22:03:55.067Z,9.62
2018-04-17T22:09:45.865Z,11.88
2018-04-17T22:15:36.532Z,9.49
2018-04-17T22:21:27.245Z,10.94
2018-04-17T22:27:17.962Z,11.66
2018-04-17T22:33:08.678Z,14.57
2018-04-17T22:38:59.386Z,11.36
2018-04-17T22:44:50.089Z,8.41
2018-04-17T22:50:40.827Z,12.11
2018-04-17T22:56:31.535Z,10.84
2018-04-17T23:02:22.244Z,13.19
2018-04-17T23:08:12.956Z,7.69
2018-04-17T23:14:03.675Z,8.07
2018-04-17T23:19:54.403Z,6.65
2018-04-17T23:25:45.114Z,9.73
2018-04-17T23:31:35.850Z,9.69
2018-04-17T23:37:26.583Z,11.39
2018-04-17T23:43:17.249Z,7.15
2018-04-17T23:49:07.945Z,10.36
2018-04-17T23:54:58.701Z,6.82
